sensor_id;sensor_type;location;lat;lon;timestamp;P1;durP1;ratioP1;P2;durP2;ratioP2
20314;SDS011;10315;50.958;13.080;2023-03-13T00:04:54;13.67;;;3.50;;
20314;SDS011;10315;50.958;13.080;2023-03-13T00:14:56;17.00;;;4.33;;
20314;SDS011;10315;50.958;13.080;2023-03-13T00:24:59;11.40;;;3.53;;
20314;SDS011;10315;50.958;13.080;2023-03-13T00:35:00;16.93;;;3.90;;
20314;SDS011;10315;50.958;13.080;2023-03-13T00:45:03;15.13;;;3.30;;
20314;SDS011;10315;50.958;13.080;2023-03-13T00:55:06;19.50;;;3.40;;
20314;SDS011;10315;50.958;13.080;2023-03-13T01:05:10;12.33;;;2.73;;
20314;SDS011;10315;50.958;13.080;2023-03-13T01:15:12;11.60;;;3.23;;
20314;SDS011;10315;50.958;13.080;2023-03-13T01:25:15;17.33;;;3.53;;
20314;SDS011;10315;50.958;13.080;2023-03-13T01:35:16;11.97;;;3.47;;
20314;SDS011;10315;50.958;13.080;2023-03-13T01:55:56;17.87;;;3.43;;
20314;SDS011;10315;50.958;13.080;2023-03-13T02:06:01;13.20;;;3.37;;
20314;SDS011;10315;50.958;13.080;2023-03-13T02:16:04;14.23;;;2.93;;
20314;SDS011;10315;50.958;13.080;2023-03-13T02:26:08;6.80;;;2.40;;
20314;SDS011;10315;50.958;13.080;2023-03-13T02:36:10;15.07;;;3.07;;
20314;SDS011;10315;50.958;13.080;2023-03-13T02:46:16;19.03;;;3.03;;
20314;SDS011;10315;50.958;13.080;2023-03-13T02:56:20;19.87;;;3.87;;
20314;SDS011;10315;50.958;13.080;2023-03-13T03:06:25;13.70;;;3.53;;
20314;SDS011;10315;50.958;13.080;2023-03-13T03:16:27;10.47;;;2.33;;
20314;SDS011;10315;50.958;13.080;2023-03-13T03:26:30;9.30;;;2.50;;
20314;SDS011;10315;50.958;13.080;2023-03-13T03:36:31;10.50;;;3.27;;
20314;SDS011;10315;50.958;13.080;2023-03-13T03:46:34;16.87;;;3.37;;
20314;SDS011;10315;50.958;13.080;2023-03-13T03:56:36;13.97;;;2.73;;
20314;SDS011;10315;50.958;13.080;2023-03-13T04:06:39;11.97;;;2.83;;
20314;SDS011;10315;50.958;13.080;2023-03-13T04:16:40;12.97;;;2.53;;
20314;SDS011;10315;50.958;13.080;2023-03-13T04:26:43;20.83;;;2.83;;
20314;SDS011;10315;50.958;13.080;2023-03-13T04:36:45;12.67;;;2.87;;
20314;SDS011;10315;50.958;13.080;2023-03-13T04:46:48;10.43;;;2.20;;
20314;SDS011;10315;50.958;13.080;2023-03-13T04:56:50;7.87;;;2.50;;
20314;SDS011;10315;50.958;13.080;2023-03-13T05:06:52;11.30;;;2.33;;
20314;SDS011;10315;50.958;13.080;2023-03-13T05:16:54;15.63;;;2.30;;
20314;SDS011;10315;50.958;13.080;2023-03-13T05:26:57;13.17;;;2.00;;
20314;SDS011;10315;50.958;13.080;2023-03-13T05:36:58;15.27;;;2.57;;
20314;SDS011;10315;50.958;13.080;2023-03-13T05:47:01;5.93;;;2.30;;
20314;SDS011;10315;50.958;13.080;2023-03-13T05:57:03;13.60;;;2.83;;
20314;SDS011;10315;50.958;13.080;2023-03-13T06:07:06;13.63;;;2.60;;
20314;SDS011;10315;50.958;13.080;2023-03-13T06:17:08;8.27;;;2.53;;
20314;SDS011;10315;50.958;13.080;2023-03-13T06:27:11;11.10;;;2.37;;
20314;SDS011;10315;50.958;13.080;2023-03-13T06:37:12;7.63;;;1.93;;
20314;SDS011;10315;50.958;13.080;2023-03-13T06:47:15;13.33;;;2.50;;
20314;SDS011;10315;50.958;13.080;2023-03-13T06:57:17;9.27;;;2.40;;
20314;SDS011;10315;50.958;13.080;2023-03-13T07:07:20;6.60;;;2.30;;
20314;SDS011;10315;50.958;13.080;2023-03-13T07:17:21;7.70;;;1.80;;
20314;SDS011;10315;50.958;13.080;2023-03-13T07:27:24;7.90;;;1.77;;
20314;SDS011;10315;50.958;13.080;2023-03-13T07:37:26;6.87;;;1.60;;
20314;SDS011;10315;50.958;13.080;2023-03-13T07:47:29;6.43;;;1.50;;
20314;SDS011;10315;50.958;13.080;2023-03-13T07:57:30;1.63;;;0.87;;
20314;SDS011;10315;50.958;13.080;2023-03-13T08:07:33;8.17;;;0.83;;
20314;SDS011;10315;50.958;13.080;2023-03-13T08:17:35;3.93;;;0.80;;
20314;SDS011;10315;50.958;13.080;2023-03-13T08:27:38;3.07;;;0.83;;
20314;SDS011;10315;50.958;13.080;2023-03-13T08:37:40;4.93;;;0.90;;
20314;SDS011;10315;50.958;13.080;2023-03-13T08:47:42;1.63;;;0.87;;
20314;SDS011;10315;50.958;13.080;2023-03-13T08:57:44;2.40;;;0.87;;
20314;SDS011;10315;50.958;13.080;2023-03-13T09:07:47;1.23;;;0.93;;
20314;SDS011;10315;50.958;13.080;2023-03-13T09:17:49;3.77;;;1.00;;
20314;SDS011;10315;50.958;13.080;2023-03-13T09:27:52;3.03;;;0.90;;
20314;SDS011;10315;50.958;13.080;2023-03-13T09:37:54;3.30;;;0.90;;
20314;SDS011;10315;50.958;13.080;2023-03-13T09:47:57;3.57;;;0.87;;
20314;SDS011;10315;50.958;13.080;2023-03-13T09:58:03;0.83;;;0.83;;
20314;SDS011;10315;50.958;13.080;2023-03-13T10:08:15;2.17;;;0.93;;
20314;SDS011;10315;50.958;13.080;2023-03-13T10:18:19;1.70;;;0.70;;
20314;SDS011;10315;50.958;13.080;2023-03-13T10:28:23;0.97;;;0.53;;
20314;SDS011;10315;50.958;13.080;2023-03-13T10:38:25;0.50;;;0.50;;
20314;SDS011;10315;50.958;13.080;2023-03-13T10:48:29;0.60;;;0.60;;
20314;SDS011;10315;50.958;13.080;2023-03-13T10:58:39;1.50;;;0.90;;
20314;SDS011;10315;50.958;13.080;2023-03-13T11:08:45;1.13;;;0.80;;
20314;SDS011;10315;50.958;13.080;2023-03-13T11:18:57;1.90;;;0.83;;
20314;SDS011;10315;50.958;13.080;2023-03-13T11:29:14;1.73;;;0.90;;
20314;SDS011;10315;50.958;13.080;2023-03-13T11:39:31;1.50;;;0.63;;
20314;SDS011;10315;50.958;13.080;2023-03-13T11:49:49;1.73;;;1.10;;
20314;SDS011;10315;50.958;13.080;2023-03-13T12:00:05;3.20;;;0.77;;
20314;SDS011;10315;50.958;13.080;2023-03-13T12:10:18;2.20;;;0.80;;
20314;SDS011;10315;50.958;13.080;2023-03-13T12:20:26;4.10;;;0.90;;
20314;SDS011;10315;50.958;13.080;2023-03-13T12:30:35;0.90;;;0.80;;
20314;SDS011;10315;50.958;13.080;2023-03-13T12:40:43;2.45;;;0.70;;
20314;SDS011;10315;50.958;13.080;2023-03-13T12:50:54;0.65;;;0.60;;
20314;SDS011;10315;50.958;13.080;2023-03-13T13:01:09;0.65;;;0.57;;
20314;SDS011;10315;50.958;13.080;2023-03-13T13:21:46;2.22;;;0.70;;
20314;SDS011;10315;50.958;13.080;2023-03-13T13:32:14;2.05;;;0.90;;
20314;SDS011;10315;50.958;13.080;2023-03-13T13:52:48;4.25;;;1.55;;
20314;SDS011;10315;50.958;13.080;2023-03-13T14:02:51;2.40;;;1.10;;
20314;SDS011;10315;50.958;13.080;2023-03-13T14:12:55;2.80;;;1.08;;
20314;SDS011;10315;50.958;13.080;2023-03-13T14:22:59;2.07;;;1.57;;
20314;SDS011;10315;50.958;13.080;2023-03-13T14:33:03;1.40;;;1.30;;
20314;SDS011;10315;50.958;13.080;2023-03-13T14:43:13;1.83;;;1.60;;
20314;SDS011;10315;50.958;13.080;2023-03-13T14:53:21;1.75;;;1.10;;
20314;SDS011;10315;50.958;13.080;2023-03-13T15:03:29;1.02;;;0.90;;
20314;SDS011;10315;50.958;13.080;2023-03-13T15:13:34;1.95;;;1.05;;
20314;SDS011;10315;50.958;13.080;2023-03-13T15:23:36;6.15;;;1.30;;
20314;SDS011;10315;50.958;13.080;2023-03-13T15:33:40;1.60;;;1.13;;
20314;SDS011;10315;50.958;13.080;2023-03-13T15:43:43;3.60;;;1.13;;
20314;SDS011;10315;50.958;13.080;2023-03-13T15:53:45;1.20;;;1.10;;
20314;SDS011;10315;50.958;13.080;2023-03-13T16:03:47;1.52;;;1.40;;
20314;SDS011;10315;50.958;13.080;2023-03-13T16:13:50;0.90;;;0.90;;
20314;SDS011;10315;50.958;13.080;2023-03-13T16:23:52;2.33;;;1.35;;
20314;SDS011;10315;50.958;13.080;2023-03-13T16:33:55;3.38;;;1.30;;
20314;SDS011;10315;50.958;13.080;2023-03-13T16:43:58;7.05;;;2.25;;
20314;SDS011;10315;50.958;13.080;2023-03-13T16:54:04;8.65;;;3.53;;
20314;SDS011;10315;50.958;13.080;2023-03-13T17:04:06;5.47;;;1.50;;
20314;SDS011;10315;50.958;13.080;2023-03-13T17:14:09;3.40;;;2.00;;
20314;SDS011;10315;50.958;13.080;2023-03-13T17:24:12;6.87;;;1.87;;
20314;SDS011;10315;50.958;13.080;2023-03-13T17:34:15;4.67;;;1.97;;
20314;SDS011;10315;50.958;13.080;2023-03-13T17:44:16;3.37;;;1.97;;
20314;SDS011;10315;50.958;13.080;2023-03-13T17:54:19;1.90;;;1.70;;
20314;SDS011;10315;50.958;13.080;2023-03-13T18:04:21;4.30;;;2.07;;
20314;SDS011;10315;50.958;13.080;2023-03-13T18:14:24;4.33;;;1.67;;
20314;SDS011;10315;50.958;13.080;2023-03-13T18:24:25;3.30;;;2.00;;
20314;SDS011;10315;50.958;13.080;2023-03-13T18:34:29;2.90;;;1.83;;
20314;SDS011;10315;50.958;13.080;2023-03-13T18:44:33;3.90;;;1.60;;
20314;SDS011;10315;50.958;13.080;2023-03-13T18:54:36;4.23;;;2.70;;
20314;SDS011;10315;50.958;13.080;2023-03-13T19:04:39;7.27;;;3.83;;
20314;SDS011;10315;50.958;13.080;2023-03-13T19:14:49;4.40;;;1.67;;
20314;SDS011;10315;50.958;13.080;2023-03-13T19:24:55;4.70;;;1.37;;
20314;SDS011;10315;50.958;13.080;2023-03-13T19:34:59;6.83;;;1.53;;
20314;SDS011;10315;50.958;13.080;2023-03-13T19:45:01;2.03;;;1.00;;
20314;SDS011;10315;50.958;13.080;2023-03-13T19:55:24;1.93;;;0.83;;
20314;SDS011;10315;50.958;13.080;2023-03-13T20:05:26;5.57;;;1.13;;
20314;SDS011;10315;50.958;13.080;2023-03-13T20:15:29;5.37;;;2.13;;
20314;SDS011;10315;50.958;13.080;2023-03-13T20:25:30;3.33;;;2.03;;
20314;SDS011;10315;50.958;13.080;2023-03-13T20:35:33;1.67;;;0.90;;
20314;SDS011;10315;50.958;13.080;2023-03-13T20:45:35;1.20;;;1.00;;
20314;SDS011;10315;50.958;13.080;2023-03-13T20:55:38;1.77;;;1.10;;
20314;SDS011;10315;50.958;13.080;2023-03-13T21:05:40;1.30;;;1.10;;
20314;SDS011;10315;50.958;13.080;2023-03-13T21:15:43;1.00;;;0.90;;
20314;SDS011;10315;50.958;13.080;2023-03-13T21:25:49;2.00;;;0.80;;
20314;SDS011;10315;50.958;13.080;2023-03-13T21:35:54;0.80;;;0.80;;
20314;SDS011;10315;50.958;13.080;2023-03-13T21:45:55;2.10;;;0.80;;
20314;SDS011;10315;50.958;13.080;2023-03-13T21:55:59;0.70;;;0.70;;
20314;SDS011;10315;50.958;13.080;2023-03-13T22:06:01;1.17;;;0.80;;
20314;SDS011;10315;50.958;13.080;2023-03-13T22:16:04;1.03;;;0.97;;
20314;SDS011;10315;50.958;13.080;2023-03-13T22:26:10;6.40;;;1.30;;
20314;SDS011;10315;50.958;13.080;2023-03-13T22:36:14;1.30;;;1.07;;
20314;SDS011;10315;50.958;13.080;2023-03-13T22:46:15;3.07;;;1.23;;
20314;SDS011;10315;50.958;13.080;2023-03-13T22:56:18;4.43;;;1.40;;
20314;SDS011;10315;50.958;13.080;2023-03-13T23:06:20;2.43;;;1.20;;
20314;SDS011;10315;50.958;13.080;2023-03-13T23:16:25;2.27;;;1.30;;
20314;SDS011;10315;50.958;13.080;2023-03-13T23:26:26;2.27;;;1.10;;
20314;SDS011;10315;50.958;13.080;2023-03-13T23:36:29;2.03;;;0.97;;
20314;SDS011;10315;50.958;13.080;2023-03-13T23:46:31;1.17;;;1.07;;
20314;SDS011;10315;50.958;13.080;2023-03-13T23:56:34;1.87;;;0.90;;
